Relevés horaires Bierset (Belgique)


Relevés horaires à Bierset - Mardi 02 Juin 2020
Heure UTC1 Température [°C] Vent [km/h] Hum. [%] Pres.4 [hPa] Visi. [Km] Nébu. [octa] Préc.5 [mm] Cond.
2m. Res. Ros. Dir.2 Vit. Moy. Raf.3
23:00 17.3 17.3 6.2 O 1.9 3.7 5.6 48 1012.1(-0.8/3h) 30 4/8 -- --
22:00 17.7 17.7 6.0 ONO 3.7 3.7 5.6 46 1012.8(0.1/3h) 30 4/8 -- --
21:00 18.7 18.7 6.7 NO 3.7 9.3 16.7 46 1013(0.3/3h) 30 4/8 -- --
20:00 20.6 20.6 7.8 NO 5.6 9.3 14.8 44 1012.7(-0.3/3h) 30 6/8 -- --
19:00 22.7 22.7 7.3 NO 9.3 9.3 16.7 37 1012.5(-1.0/3h) 30 7/8 -- --
18:00 25.6 25.6 6.3 NO 5.6 7.4 13.0 29 1012.3(-1.7/3h) 30 6/8 0/12h
--
17:00 26.3 26.3 5.9 ONO 5.6 5.6 9.3 27 1012.7(-2.0/3h) 30 6/8 -- --
16:00 26.9 26.9 5.0 ONO 5.6 5.6 9.3 25 1013.3(-2.0/3h) 30 6/8 -- --
15:00 27.5 27.5 5.2 NNO 5.6 7.4 13.0 24 1013.9(-1.9/3h) 30 6/8 -- --
14:00 26.8 26.8 5.2 N 5.6 7.4 13.0 25 1014.7(-1.9/3h) 30 3/8 -- --
13:00 27.2 27.2 6.5 ONO 5.6 5.6 11.1 27 1015.3(-1.8/3h) 30 3/8 -- --
12:00 26.1 26.1 6.4 NNO 3.7 5.6 11.1 28 1015.9(-1.7/3h) 30 1/8 0/6h
--
11:00 25.8 25.8 7.1 NNO 3.7 5.6 11.1 30 1016.7(-1.3/3h) 30 1/8 -- --
10:00 24.3 24.3 7.2 NNO 5.6 5.6 9.3 33 1017.4(-0.9/3h) 30 1/8 -- --
09:00 22.6 22.6 9.4 NO 3.7 5.6 11.1 43 1017.9(-0.5/3h) 30 3/8 -- --
08:00 22.1 22.1 9.0 NNO 0.0 3.7 11.1 43 1018.3(0.1/3h) 30 3/8 -- --
07:00 19.4 19.4 7.9 S 3.7 3.7 5.6 47 1018.6(-0.1/3h) 30 3/8 -- --
06:00 17.2 17.2 7.6 OSO 1.9 7.4 16.7 53 1018.9(0.2/3h) 30 3/8 0/12h
--
05:00 15.6 15.6 6.7 SE 7.4 7.4 9.3 55 1018.9(-0.2/3h) 30 2/8 -- --
04:00 14.7 14.7 7.3 S 1.9 5.6 16.7 61 1018.8(-0.5/3h) 30 1/8 -- --
03:00 15.6 15.6 7.3 NNO 5.6 7.4 16.7 58 1018.8(-0.8/3h) 30 2/8 -- --
02:00 16.0 16.0 7.2 SE 7.4 7.4 16.7 56 1019(-1.0/3h) 30 2/8 -- --
01:00 16.7 16.7 6.9 SE 3.7 3.7 16.7 52 1019.2(-0.9/3h) 30 2/8 -- --
00:00 17.8 17.8 5.5 ESE 3.7 9.3 13.0 44 1019.4(-0.2/3h) 30 2/8 0/6h
0/24h
--

1 Coordinated Universal Time. Actuellement il est 19:00 locale et 18:00 UTC.

2 Le vent souffle depuis la direction indiquée vers la direction oposée.

3 Les rafales max. sont disponible 40 min après l'heure du relevé.

4 Pour les stations d'altitude (plus de 600m) le géopotentiel du niveau le plus proche de la pression obligatoire est indiqué.

5 Les stations disposant d'un diffuseur peuvent indiquer "trace". Cela signifie que des précipitations ont touchés le sol mais que la quantité est inférieure à 0.1 mm.

Récapitulatif de la journée
Température [°C] Vent [km/h] Ensoleillement4 [h] Precipitations totale5 [mm] Pression [Hpa]
Min1 Max.2 Moy.3 Max. Min Max.
14.5 27.8 6.3 16.7 0 h 0 min 0 1012.1 1019.4

1 Température minimale relevée entre 18:00 UTC la veille et 18:00 UTC le jour donné.

2 Température maximale relevée entre 06:00 UTC le jour donné et 06:00 UTC le lendemain.

3 Vent moyen de la journée basé sur les relevés horaires.

4 Ensoleillement en heures relevé entre 06:00 UTC la veille et 06:00 UTC le jour donné.

5 Précipitations totales tombées entre 06:00 UTC la jour donné et 06:00 UTC le lendemain.

Graphiques horaires